sensor_id;sensor_type;location;lat;lon;timestamp;P1;durP1;ratioP1;P2;durP2;ratioP2
58302;SDS011;44109;52.398;7.024;2023-05-14T00:02:16;11.90;;;11.07;;
58302;SDS011;44109;52.398;7.024;2023-05-14T00:04:43;11.10;;;10.00;;
58302;SDS011;44109;52.398;7.024;2023-05-14T00:07:11;14.25;;;12.95;;
58302;SDS011;44109;52.398;7.024;2023-05-14T00:09:39;12.40;;;11.40;;
58302;SDS011;44109;52.398;7.024;2023-05-14T00:12:07;13.13;;;12.18;;
58302;SDS011;44109;52.398;7.024;2023-05-14T00:14:36;13.88;;;12.88;;
58302;SDS011;44109;52.398;7.024;2023-05-14T00:17:04;12.02;;;10.85;;
58302;SDS011;44109;52.398;7.024;2023-05-14T00:19:31;15.70;;;14.30;;
58302;SDS011;44109;52.398;7.024;2023-05-14T00:21:59;14.50;;;13.25;;
58302;SDS011;44109;52.398;7.024;2023-05-14T00:24:26;16.88;;;15.55;;
58302;SDS011;44109;52.398;7.024;2023-05-14T00:26:54;17.33;;;16.20;;
58302;SDS011;44109;52.398;7.024;2023-05-14T00:29:22;14.10;;;13.10;;
58302;SDS011;44109;52.398;7.024;2023-05-14T00:31:51;16.95;;;15.35;;
58302;SDS011;44109;52.398;7.024;2023-05-14T00:34:18;17.75;;;16.48;;
58302;SDS011;44109;52.398;7.024;2023-05-14T00:36:46;18.35;;;17.15;;
58302;SDS011;44109;52.398;7.024;2023-05-14T00:39:14;18.13;;;16.73;;
58302;SDS011;44109;52.398;7.024;2023-05-14T00:41:41;21.90;;;20.40;;
58302;SDS011;44109;52.398;7.024;2023-05-14T00:44:09;19.73;;;18.23;;
58302;SDS011;44109;52.398;7.024;2023-05-14T00:46:37;19.05;;;17.88;;
58302;SDS011;44109;52.398;7.024;2023-05-14T00:49:06;21.45;;;20.08;;
58302;SDS011;44109;52.398;7.024;2023-05-14T00:51:34;22.05;;;20.60;;
58302;SDS011;44109;52.398;7.024;2023-05-14T00:54:01;20.42;;;19.13;;
58302;SDS011;44109;52.398;7.024;2023-05-14T00:56:29;22.55;;;20.85;;
58302;SDS011;44109;52.398;7.024;2023-05-14T00:58:57;23.10;;;21.52;;
58302;SDS011;44109;52.398;7.024;2023-05-14T01:01:25;21.80;;;20.20;;
58302;SDS011;44109;52.398;7.024;2023-05-14T01:03:53;23.63;;;22.02;;
58302;SDS011;44109;52.398;7.024;2023-05-14T01:06:25;22.83;;;21.23;;
58302;SDS011;44109;52.398;7.024;2023-05-14T01:09:07;25.33;;;23.83;;
58302;SDS011;44109;52.398;7.024;2023-05-14T01:11:46;23.23;;;21.58;;
58302;SDS011;44109;52.398;7.024;2023-05-14T01:14:26;23.80;;;22.20;;
58302;SDS011;44109;52.398;7.024;2023-05-14T01:17:04;25.10;;;23.48;;
58302;SDS011;44109;52.398;7.024;2023-05-14T01:19:38;27.15;;;25.40;;
58302;SDS011;44109;52.398;7.024;2023-05-14T01:22:09;25.15;;;23.83;;
58302;SDS011;44109;52.398;7.024;2023-05-14T01:24:37;26.77;;;25.23;;
58302;SDS011;44109;52.398;7.024;2023-05-14T01:27:07;27.10;;;25.48;;
58302;SDS011;44109;52.398;7.024;2023-05-14T01:29:45;26.52;;;24.92;;
58302;SDS011;44109;52.398;7.024;2023-05-14T01:32:22;27.02;;;25.52;;
58302;SDS011;44109;52.398;7.024;2023-05-14T01:34:52;27.30;;;25.67;;
58302;SDS011;44109;52.398;7.024;2023-05-14T01:37:27;26.50;;;25.02;;
58302;SDS011;44109;52.398;7.024;2023-05-14T01:39:57;26.40;;;24.90;;
58302;SDS011;44109;52.398;7.024;2023-05-14T01:42:26;26.92;;;25.50;;
58302;SDS011;44109;52.398;7.024;2023-05-14T01:44:55;27.48;;;25.60;;
58302;SDS011;44109;52.398;7.024;2023-05-14T01:47:23;28.70;;;26.67;;
58302;SDS011;44109;52.398;7.024;2023-05-14T01:49:51;31.35;;;29.48;;
58302;SDS011;44109;52.398;7.024;2023-05-14T01:52:19;29.65;;;28.05;;
58302;SDS011;44109;52.398;7.024;2023-05-14T01:54:48;31.20;;;29.60;;
58302;SDS011;44109;52.398;7.024;2023-05-14T01:57:16;30.65;;;28.88;;
58302;SDS011;44109;52.398;7.024;2023-05-14T01:59:43;31.58;;;29.58;;
58302;SDS011;44109;52.398;7.024;2023-05-14T02:02:11;33.13;;;31.15;;
58302;SDS011;44109;52.398;7.024;2023-05-14T02:04:38;34.47;;;32.75;;
58302;SDS011;44109;52.398;7.024;2023-05-14T02:07:06;33.70;;;31.98;;
58302;SDS011;44109;52.398;7.024;2023-05-14T02:09:34;35.95;;;33.97;;
58302;SDS011;44109;52.398;7.024;2023-05-14T02:12:03;33.90;;;32.08;;
58302;SDS011;44109;52.398;7.024;2023-05-14T02:14:31;33.47;;;31.65;;
58302;SDS011;44109;52.398;7.024;2023-05-14T02:16:58;33.00;;;31.30;;
58302;SDS011;44109;52.398;7.024;2023-05-14T02:19:26;33.88;;;32.17;;
58302;SDS011;44109;52.398;7.024;2023-05-14T02:21:54;35.15;;;33.25;;
58302;SDS011;44109;52.398;7.024;2023-05-14T02:24:21;33.40;;;31.90;;
58302;SDS011;44109;52.398;7.024;2023-05-14T02:26:49;35.55;;;33.53;;
58302;SDS011;44109;52.398;7.024;2023-05-14T02:29:18;37.05;;;35.15;;
58302;SDS011;44109;52.398;7.024;2023-05-14T02:31:45;36.92;;;34.83;;
58302;SDS011;44109;52.398;7.024;2023-05-14T02:34:13;38.35;;;36.33;;
58302;SDS011;44109;52.398;7.024;2023-05-14T02:36:41;39.25;;;37.28;;
58302;SDS011;44109;52.398;7.024;2023-05-14T02:39:08;39.55;;;37.58;;
58302;SDS011;44109;52.398;7.024;2023-05-14T02:41:36;40.35;;;38.35;;
58302;SDS011;44109;52.398;7.024;2023-05-14T02:44:03;40.30;;;37.92;;
58302;SDS011;44109;52.398;7.024;2023-05-14T02:46:33;39.83;;;37.83;;
58302;SDS011;44109;52.398;7.024;2023-05-14T02:49:01;42.95;;;40.65;;
58302;SDS011;44109;52.398;7.024;2023-05-14T02:51:28;42.35;;;40.20;;
58302;SDS011;44109;52.398;7.024;2023-05-14T02:53:56;43.42;;;41.17;;
58302;SDS011;44109;52.398;7.024;2023-05-14T02:56:24;44.97;;;42.63;;
58302;SDS011;44109;52.398;7.024;2023-05-14T02:58:52;44.13;;;41.60;;
58302;SDS011;44109;52.398;7.024;2023-05-14T03:01:19;42.67;;;40.45;;
58302;SDS011;44109;52.398;7.024;2023-05-14T03:03:48;44.45;;;42.25;;
58302;SDS011;44109;52.398;7.024;2023-05-14T03:06:16;43.10;;;41.08;;
58302;SDS011;44109;52.398;7.024;2023-05-14T03:08:43;46.40;;;44.13;;
58302;SDS011;44109;52.398;7.024;2023-05-14T03:11:11;46.60;;;44.40;;
58302;SDS011;44109;52.398;7.024;2023-05-14T03:13:39;44.58;;;42.45;;
58302;SDS011;44109;52.398;7.024;2023-05-14T03:16:06;44.90;;;42.63;;
58302;SDS011;44109;52.398;7.024;2023-05-14T03:18:34;46.78;;;44.53;;
58302;SDS011;44109;52.398;7.024;2023-05-14T03:21:03;49.42;;;46.83;;
58302;SDS011;44109;52.398;7.024;2023-05-14T03:23:31;49.60;;;46.95;;
58302;SDS011;44109;52.398;7.024;2023-05-14T03:25:59;48.33;;;45.78;;
58302;SDS011;44109;52.398;7.024;2023-05-14T03:28:28;49.33;;;46.85;;
58302;SDS011;44109;52.398;7.024;2023-05-14T03:30:56;50.25;;;47.92;;
58302;SDS011;44109;52.398;7.024;2023-05-14T03:33:24;51.38;;;48.88;;
58302;SDS011;44109;52.398;7.024;2023-05-14T03:35:51;50.60;;;48.22;;
58302;SDS011;44109;52.398;7.024;2023-05-14T03:38:20;50.15;;;47.67;;
58302;SDS011;44109;52.398;7.024;2023-05-14T03:40:48;51.03;;;48.58;;
58302;SDS011;44109;52.398;7.024;2023-05-14T03:43:16;50.92;;;48.13;;
58302;SDS011;44109;52.398;7.024;2023-05-14T03:45:43;52.15;;;49.75;;
58302;SDS011;44109;52.398;7.024;2023-05-14T03:48:11;52.83;;;50.35;;
58302;SDS011;44109;52.398;7.024;2023-05-14T03:50:39;52.28;;;49.67;;
58302;SDS011;44109;52.398;7.024;2023-05-14T03:53:06;52.78;;;50.15;;
58302;SDS011;44109;52.398;7.024;2023-05-14T03:55:36;54.75;;;51.97;;
58302;SDS011;44109;52.398;7.024;2023-05-14T03:58:03;53.75;;;51.17;;
58302;SDS011;44109;52.398;7.024;2023-05-14T04:00:35;54.03;;;51.40;;
58302;SDS011;44109;52.398;7.024;2023-05-14T04:03:03;57.05;;;54.45;;
58302;SDS011;44109;52.398;7.024;2023-05-14T04:05:30;57.78;;;55.00;;
58302;SDS011;44109;52.398;7.024;2023-05-14T04:07:58;57.35;;;54.67;;
58302;SDS011;44109;52.398;7.024;2023-05-14T04:10:26;58.08;;;55.47;;
58302;SDS011;44109;52.398;7.024;2023-05-14T04:12:55;59.63;;;56.55;;
58302;SDS011;44109;52.398;7.024;2023-05-14T04:15:23;58.05;;;55.30;;
58302;SDS011;44109;52.398;7.024;2023-05-14T04:17:51;58.22;;;55.42;;
58302;SDS011;44109;52.398;7.024;2023-05-14T04:20:18;58.50;;;55.88;;
58302;SDS011;44109;52.398;7.024;2023-05-14T04:22:46;60.85;;;57.85;;
58302;SDS011;44109;52.398;7.024;2023-05-14T04:25:14;63.03;;;60.00;;
58302;SDS011;44109;52.398;7.024;2023-05-14T04:27:43;57.72;;;55.05;;
58302;SDS011;44109;52.398;7.024;2023-05-14T04:30:12;59.85;;;56.92;;
58302;SDS011;44109;52.398;7.024;2023-05-14T04:32:40;60.40;;;57.42;;
58302;SDS011;44109;52.398;7.024;2023-05-14T04:35:07;60.28;;;57.30;;
58302;SDS011;44109;52.398;7.024;2023-05-14T04:37:35;61.10;;;58.38;;
58302;SDS011;44109;52.398;7.024;2023-05-14T04:40:03;66.75;;;63.63;;
58302;SDS011;44109;52.398;7.024;2023-05-14T04:42:33;59.53;;;56.65;;
58302;SDS011;44109;52.398;7.024;2023-05-14T04:45:01;60.70;;;57.67;;
58302;SDS011;44109;52.398;7.024;2023-05-14T04:47:31;61.15;;;58.45;;
58302;SDS011;44109;52.398;7.024;2023-05-14T04:49:58;61.75;;;58.38;;
58302;SDS011;44109;52.398;7.024;2023-05-14T04:52:26;65.20;;;61.58;;
58302;SDS011;44109;52.398;7.024;2023-05-14T04:54:54;61.08;;;58.10;;
58302;SDS011;44109;52.398;7.024;2023-05-14T04:57:21;55.95;;;53.00;;
58302;SDS011;44109;52.398;7.024;2023-05-14T04:59:49;57.72;;;54.33;;
58302;SDS011;44109;52.398;7.024;2023-05-14T05:02:17;52.00;;;48.88;;
58302;SDS011;44109;52.398;7.024;2023-05-14T05:04:46;45.53;;;42.92;;
58302;SDS011;44109;52.398;7.024;2023-05-14T05:07:13;46.78;;;44.13;;
58302;SDS011;44109;52.398;7.024;2023-05-14T05:09:41;48.80;;;46.08;;
58302;SDS011;44109;52.398;7.024;2023-05-14T05:12:09;44.90;;;42.28;;
58302;SDS011;44109;52.398;7.024;2023-05-14T05:14:36;50.45;;;47.63;;
58302;SDS011;44109;52.398;7.024;2023-05-14T05:17:04;58.38;;;55.38;;
58302;SDS011;44109;52.398;7.024;2023-05-14T05:19:32;61.70;;;58.80;;
58302;SDS011;44109;52.398;7.024;2023-05-14T05:22:01;60.35;;;57.67;;
58302;SDS011;44109;52.398;7.024;2023-05-14T05:24:28;59.92;;;56.88;;
58302;SDS011;44109;52.398;7.024;2023-05-14T05:26:56;56.55;;;53.65;;
58302;SDS011;44109;52.398;7.024;2023-05-14T05:29:24;55.10;;;52.30;;
58302;SDS011;44109;52.398;7.024;2023-05-14T05:31:51;53.60;;;51.15;;
58302;SDS011;44109;52.398;7.024;2023-05-14T05:34:19;51.83;;;49.13;;
58302;SDS011;44109;52.398;7.024;2023-05-14T05:36:46;51.10;;;48.63;;
58302;SDS011;44109;52.398;7.024;2023-05-14T05:39:15;46.80;;;44.42;;
58302;SDS011;44109;52.398;7.024;2023-05-14T05:41:43;43.28;;;40.65;;
58302;SDS011;44109;52.398;7.024;2023-05-14T05:44:11;41.38;;;39.13;;
58302;SDS011;44109;52.398;7.024;2023-05-14T05:46:38;34.58;;;32.88;;
58302;SDS011;44109;52.398;7.024;2023-05-14T05:49:06;36.05;;;33.85;;
58302;SDS011;44109;52.398;7.024;2023-05-14T05:51:33;31.42;;;29.83;;
58302;SDS011;44109;52.398;7.024;2023-05-14T05:54:01;32.65;;;31.10;;
58302;SDS011;44109;52.398;7.024;2023-05-14T05:56:30;31.48;;;29.85;;
58302;SDS011;44109;52.398;7.024;2023-05-14T05:58:57;31.33;;;29.63;;
58302;SDS011;44109;52.398;7.024;2023-05-14T06:01:43;30.27;;;28.80;;
58302;SDS011;44109;52.398;7.024;2023-05-14T06:04:11;30.55;;;28.92;;
58302;SDS011;44109;52.398;7.024;2023-05-14T06:06:38;31.08;;;28.92;;
58302;SDS011;44109;52.398;7.024;2023-05-14T06:09:06;31.00;;;29.33;;
58302;SDS011;44109;52.398;7.024;2023-05-14T06:11:36;29.70;;;28.13;;
58302;SDS011;44109;52.398;7.024;2023-05-14T06:14:03;29.92;;;28.42;;
58302;SDS011;44109;52.398;7.024;2023-05-14T06:16:31;29.90;;;28.33;;
58302;SDS011;44109;52.398;7.024;2023-05-14T06:18:59;29.73;;;27.98;;
58302;SDS011;44109;52.398;7.024;2023-05-14T06:21:26;29.20;;;27.70;;
58302;SDS011;44109;52.398;7.024;2023-05-14T06:23:54;29.38;;;27.98;;
58302;SDS011;44109;52.398;7.024;2023-05-14T06:26:22;27.10;;;25.88;;
58302;SDS011;44109;52.398;7.024;2023-05-14T06:28:51;26.70;;;25.23;;
58302;SDS011;44109;52.398;7.024;2023-05-14T06:31:18;26.95;;;25.42;;
58302;SDS011;44109;52.398;7.024;2023-05-14T06:33:46;27.13;;;25.63;;
58302;SDS011;44109;52.398;7.024;2023-05-14T06:36:13;27.27;;;25.60;;
58302;SDS011;44109;52.398;7.024;2023-05-14T06:38:41;27.33;;;25.73;;
58302;SDS011;44109;52.398;7.024;2023-05-14T06:41:09;27.90;;;26.35;;
58302;SDS011;44109;52.398;7.024;2023-05-14T06:43:36;28.35;;;26.80;;
58302;SDS011;44109;52.398;7.024;2023-05-14T06:46:05;28.33;;;26.83;;
58302;SDS011;44109;52.398;7.024;2023-05-14T06:48:33;29.15;;;27.60;;
58302;SDS011;44109;52.398;7.024;2023-05-14T06:51:01;29.10;;;27.55;;
58302;SDS011;44109;52.398;7.024;2023-05-14T06:53:29;30.17;;;28.63;;
58302;SDS011;44109;52.398;7.024;2023-05-14T06:55:57;30.88;;;29.33;;
58302;SDS011;44109;52.398;7.024;2023-05-14T06:58:24;30.08;;;28.70;;
58302;SDS011;44109;52.398;7.024;2023-05-14T07:00:52;32.47;;;30.80;;
58302;SDS011;44109;52.398;7.024;2023-05-14T07:03:21;32.38;;;30.67;;
58302;SDS011;44109;52.398;7.024;2023-05-14T07:05:48;31.92;;;30.40;;
58302;SDS011;44109;52.398;7.024;2023-05-14T07:08:16;29.27;;;27.77;;
58302;SDS011;44109;52.398;7.024;2023-05-14T07:10:44;29.65;;;28.20;;
58302;SDS011;44109;52.398;7.024;2023-05-14T07:13:11;30.98;;;29.35;;
58302;SDS011;44109;52.398;7.024;2023-05-14T07:15:39;30.27;;;28.85;;
58302;SDS011;44109;52.398;7.024;2023-05-14T07:18:06;30.25;;;28.65;;
58302;SDS011;44109;52.398;7.024;2023-05-14T07:20:35;29.88;;;28.38;;
58302;SDS011;44109;52.398;7.024;2023-05-14T07:23:04;31.02;;;29.48;;
58302;SDS011;44109;52.398;7.024;2023-05-14T07:25:31;28.98;;;27.65;;
58302;SDS011;44109;52.398;7.024;2023-05-14T07:27:59;29.55;;;28.15;;
58302;SDS011;44109;52.398;7.024;2023-05-14T07:30:27;30.52;;;29.08;;
58302;SDS011;44109;52.398;7.024;2023-05-14T07:32:54;32.20;;;30.63;;
58302;SDS011;44109;52.398;7.024;2023-05-14T07:35:22;30.02;;;28.60;;
58302;SDS011;44109;52.398;7.024;2023-05-14T07:37:51;29.77;;;28.48;;
58302;SDS011;44109;52.398;7.024;2023-05-14T07:40:18;28.98;;;27.58;;
58302;SDS011;44109;52.398;7.024;2023-05-14T07:42:47;29.40;;;28.20;;
58302;SDS011;44109;52.398;7.024;2023-05-14T07:45:14;29.50;;;28.17;;
58302;SDS011;44109;52.398;7.024;2023-05-14T07:47:42;30.00;;;28.50;;
58302;SDS011;44109;52.398;7.024;2023-05-14T07:50:10;28.70;;;27.38;;
58302;SDS011;44109;52.398;7.024;2023-05-14T07:52:37;27.85;;;26.65;;
58302;SDS011;44109;52.398;7.024;2023-05-14T07:55:07;28.15;;;26.88;;
58302;SDS011;44109;52.398;7.024;2023-05-14T07:57:36;29.45;;;28.02;;
58302;SDS011;44109;52.398;7.024;2023-05-14T08:00:04;27.65;;;26.45;;
58302;SDS011;44109;52.398;7.024;2023-05-14T08:02:33;28.33;;;27.13;;
58302;SDS011;44109;52.398;7.024;2023-05-14T08:05:01;30.17;;;28.88;;
58302;SDS011;44109;52.398;7.024;2023-05-14T08:07:29;31.45;;;30.05;;
58302;SDS011;44109;52.398;7.024;2023-05-14T08:09:58;35.10;;;33.50;;
58302;SDS011;44109;52.398;7.024;2023-05-14T08:12:27;32.47;;;31.08;;
58302;SDS011;44109;52.398;7.024;2023-05-14T08:14:55;35.63;;;34.13;;
58302;SDS011;44109;52.398;7.024;2023-05-14T08:17:22;34.63;;;33.25;;
58302;SDS011;44109;52.398;7.024;2023-05-14T08:19:50;32.78;;;31.48;;
58302;SDS011;44109;52.398;7.024;2023-05-14T08:22:18;34.42;;;33.03;;
58302;SDS011;44109;52.398;7.024;2023-05-14T08:24:46;31.17;;;29.98;;
58302;SDS011;44109;52.398;7.024;2023-05-14T08:27:14;33.67;;;32.20;;
58302;SDS011;44109;52.398;7.024;2023-05-14T08:29:43;32.33;;;31.02;;
58302;SDS011;44109;52.398;7.024;2023-05-14T08:32:12;34.05;;;32.15;;
58302;SDS011;44109;52.398;7.024;2023-05-14T08:34:39;34.03;;;32.72;;
58302;SDS011;44109;52.398;7.024;2023-05-14T08:37:07;31.02;;;29.73;;
58302;SDS011;44109;52.398;7.024;2023-05-14T08:39:34;31.45;;;30.15;;
58302;SDS011;44109;52.398;7.024;2023-05-14T08:42:02;29.92;;;28.73;;
58302;SDS011;44109;52.398;7.024;2023-05-14T08:44:35;31.83;;;30.58;;
58302;SDS011;44109;52.398;7.024;2023-05-14T08:47:13;27.70;;;26.38;;
58302;SDS011;44109;52.398;7.024;2023-05-14T08:49:45;25.10;;;24.05;;
58302;SDS011;44109;52.398;7.024;2023-05-14T08:52:18;29.30;;;28.10;;
58302;SDS011;44109;52.398;7.024;2023-05-14T08:54:49;26.67;;;25.58;;
58302;SDS011;44109;52.398;7.024;2023-05-14T08:57:19;27.02;;;25.60;;
58302;SDS011;44109;52.398;7.024;2023-05-14T08:59:50;24.95;;;23.95;;
58302;SDS011;44109;52.398;7.024;2023-05-14T09:02:19;27.55;;;26.33;;
58302;SDS011;44109;52.398;7.024;2023-05-14T09:04:54;29.55;;;28.25;;
58302;SDS011;44109;52.398;7.024;2023-05-14T09:07:24;29.08;;;27.83;;
58302;SDS011;44109;52.398;7.024;2023-05-14T09:09:52;27.50;;;26.25;;
58302;SDS011;44109;52.398;7.024;2023-05-14T09:12:21;33.67;;;32.17;;
58302;SDS011;44109;52.398;7.024;2023-05-14T09:14:50;25.67;;;24.75;;
58302;SDS011;44109;52.398;7.024;2023-05-14T09:17:18;26.35;;;25.15;;
58302;SDS011;44109;52.398;7.024;2023-05-14T09:19:46;32.28;;;30.92;;
58302;SDS011;44109;52.398;7.024;2023-05-14T09:22:17;25.40;;;24.25;;
58302;SDS011;44109;52.398;7.024;2023-05-14T09:24:46;26.83;;;25.60;;
58302;SDS011;44109;52.398;7.024;2023-05-14T09:27:29;26.55;;;25.33;;
58302;SDS011;44109;52.398;7.024;2023-05-14T09:30:07;24.80;;;23.70;;
58302;SDS011;44109;52.398;7.024;2023-05-14T09:32:37;23.30;;;22.30;;
58302;SDS011;44109;52.398;7.024;2023-05-14T09:35:18;26.45;;;25.20;;
58302;SDS011;44109;52.398;7.024;2023-05-14T09:37:49;27.00;;;25.73;;
58302;SDS011;44109;52.398;7.024;2023-05-14T09:40:19;25.30;;;24.17;;
58302;SDS011;44109;52.398;7.024;2023-05-14T09:42:49;24.88;;;23.98;;
58302;SDS011;44109;52.398;7.024;2023-05-14T09:45:18;24.27;;;23.27;;
58302;SDS011;44109;52.398;7.024;2023-05-14T09:47:45;24.77;;;23.48;;
58302;SDS011;44109;52.398;7.024;2023-05-14T09:50:13;22.50;;;21.42;;
58302;SDS011;44109;52.398;7.024;2023-05-14T09:52:41;23.52;;;22.52;;
58302;SDS011;44109;52.398;7.024;2023-05-14T09:55:08;24.83;;;23.83;;
58302;SDS011;44109;52.398;7.024;2023-05-14T09:57:36;25.45;;;24.40;;
58302;SDS011;44109;52.398;7.024;2023-05-14T10:00:04;23.23;;;22.23;;
58302;SDS011;44109;52.398;7.024;2023-05-14T10:02:36;21.83;;;20.92;;
58302;SDS011;44109;52.398;7.024;2023-05-14T10:05:06;22.60;;;21.60;;
58302;SDS011;44109;52.398;7.024;2023-05-14T10:07:37;22.67;;;21.67;;
58302;SDS011;44109;52.398;7.024;2023-05-14T10:10:14;24.02;;;22.85;;
58302;SDS011;44109;52.398;7.024;2023-05-14T10:12:45;24.40;;;23.40;;
58302;SDS011;44109;52.398;7.024;2023-05-14T10:15:20;21.95;;;20.90;;
58302;SDS011;44109;52.398;7.024;2023-05-14T10:17:57;22.40;;;21.50;;
58302;SDS011;44109;52.398;7.024;2023-05-14T10:20:32;21.27;;;20.40;;
58302;SDS011;44109;52.398;7.024;2023-05-14T10:23:04;22.60;;;21.60;;
58302;SDS011;44109;52.398;7.024;2023-05-14T10:25:32;23.20;;;22.27;;
58302;SDS011;44109;52.398;7.024;2023-05-14T10:28:00;21.10;;;20.20;;
58302;SDS011;44109;52.398;7.024;2023-05-14T10:30:29;21.73;;;20.83;;
58302;SDS011;44109;52.398;7.024;2023-05-14T10:33:06;23.45;;;22.45;;
58302;SDS011;44109;52.398;7.024;2023-05-14T10:38:29;23.55;;;22.55;;
58302;SDS011;44109;52.398;7.024;2023-05-14T10:41:00;24.35;;;23.33;;
58302;SDS011;44109;52.398;7.024;2023-05-14T10:43:30;22.00;;;21.10;;
58302;SDS011;44109;52.398;7.024;2023-05-14T10:46:03;23.35;;;22.42;;
58302;SDS011;44109;52.398;7.024;2023-05-14T10:48:33;22.25;;;21.35;;
58302;SDS011;44109;52.398;7.024;2023-05-14T10:51:03;25.65;;;24.55;;
58302;SDS011;44109;52.398;7.024;2023-05-14T10:53:34;23.20;;;22.25;;
58302;SDS011;44109;52.398;7.024;2023-05-14T10:56:05;21.45;;;20.55;;
58302;SDS011;44109;52.398;7.024;2023-05-14T10:58:35;21.85;;;21.05;;
58302;SDS011;44109;52.398;7.024;2023-05-14T11:01:04;22.20;;;21.20;;
58302;SDS011;44109;52.398;7.024;2023-05-14T11:03:39;26.00;;;24.90;;
58302;SDS011;44109;52.398;7.024;2023-05-14T11:06:10;20.25;;;19.45;;
58302;SDS011;44109;52.398;7.024;2023-05-14T11:08:40;21.42;;;20.52;;
58302;SDS011;44109;52.398;7.024;2023-05-14T11:11:08;21.75;;;20.95;;
58302;SDS011;44109;52.398;7.024;2023-05-14T11:13:36;22.48;;;21.58;;
58302;SDS011;44109;52.398;7.024;2023-05-14T11:16:04;21.35;;;20.35;;
58302;SDS011;44109;52.398;7.024;2023-05-14T11:18:33;22.85;;;21.75;;
58302;SDS011;44109;52.398;7.024;2023-05-14T11:21:04;23.33;;;22.42;;
58302;SDS011;44109;52.398;7.024;2023-05-14T11:23:32;22.80;;;21.73;;
58302;SDS011;44109;52.398;7.024;2023-05-14T11:26:00;25.63;;;24.63;;
58302;SDS011;44109;52.398;7.024;2023-05-14T11:28:28;24.70;;;23.70;;
58302;SDS011;44109;52.398;7.024;2023-05-14T11:30:56;23.63;;;22.73;;
58302;SDS011;44109;52.398;7.024;2023-05-14T11:33:23;25.33;;;24.23;;
58302;SDS011;44109;52.398;7.024;2023-05-14T11:35:55;23.85;;;22.85;;
58302;SDS011;44109;52.398;7.024;2023-05-14T11:38:24;24.65;;;23.65;;
58302;SDS011;44109;52.398;7.024;2023-05-14T11:40:52;23.80;;;22.83;;
58302;SDS011;44109;52.398;7.024;2023-05-14T11:43:21;21.73;;;20.83;;
58302;SDS011;44109;52.398;7.024;2023-05-14T11:45:49;25.13;;;24.02;;
58302;SDS011;44109;52.398;7.024;2023-05-14T11:48:18;21.20;;;20.40;;
58302;SDS011;44109;52.398;7.024;2023-05-14T11:50:47;22.33;;;21.42;;
58302;SDS011;44109;52.398;7.024;2023-05-14T11:53:17;24.13;;;23.23;;
58302;SDS011;44109;52.398;7.024;2023-05-14T11:55:47;22.92;;;22.02;;
58302;SDS011;44109;52.398;7.024;2023-05-14T11:58:14;24.08;;;23.15;;
58302;SDS011;44109;52.398;7.024;2023-05-14T12:00:44;22.42;;;21.63;;
58302;SDS011;44109;52.398;7.024;2023-05-14T12:03:12;22.38;;;21.48;;
58302;SDS011;44109;52.398;7.024;2023-05-14T12:05:39;21.98;;;21.05;;
58302;SDS011;44109;52.398;7.024;2023-05-14T12:08:20;23.23;;;22.23;;
58302;SDS011;44109;52.398;7.024;2023-05-14T12:10:49;22.08;;;21.17;;
58302;SDS011;44109;52.398;7.024;2023-05-14T12:13:19;22.98;;;21.98;;
58302;SDS011;44109;52.398;7.024;2023-05-14T12:15:47;21.75;;;20.88;;
58302;SDS011;44109;52.398;7.024;2023-05-14T12:18:21;22.20;;;21.38;;
58302;SDS011;44109;52.398;7.024;2023-05-14T12:20:51;24.50;;;23.50;;
58302;SDS011;44109;52.398;7.024;2023-05-14T12:23:23;24.35;;;23.40;;
58302;SDS011;44109;52.398;7.024;2023-05-14T12:25:53;23.13;;;22.17;;
58302;SDS011;44109;52.398;7.024;2023-05-14T12:28:21;24.38;;;23.38;;
58302;SDS011;44109;52.398;7.024;2023-05-14T12:30:54;25.15;;;24.15;;
58302;SDS011;44109;52.398;7.024;2023-05-14T12:33:22;24.83;;;23.80;;
58302;SDS011;44109;52.398;7.024;2023-05-14T12:35:51;22.08;;;21.25;;
58302;SDS011;44109;52.398;7.024;2023-05-14T12:38:22;23.77;;;22.67;;
58302;SDS011;44109;52.398;7.024;2023-05-14T12:40:49;22.70;;;21.90;;
58302;SDS011;44109;52.398;7.024;2023-05-14T12:43:18;23.42;;;22.50;;
58302;SDS011;44109;52.398;7.024;2023-05-14T12:45:46;23.00;;;22.10;;
58302;SDS011;44109;52.398;7.024;2023-05-14T12:48:14;22.45;;;21.55;;
58302;SDS011;44109;52.398;7.024;2023-05-14T12:50:42;22.23;;;21.38;;
58302;SDS011;44109;52.398;7.024;2023-05-14T12:53:09;21.85;;;21.05;;
58302;SDS011;44109;52.398;7.024;2023-05-14T12:55:41;22.92;;;21.98;;
58302;SDS011;44109;52.398;7.024;2023-05-14T12:58:08;24.85;;;23.85;;
58302;SDS011;44109;52.398;7.024;2023-05-14T13:00:37;20.00;;;19.10;;
58302;SDS011;44109;52.398;7.024;2023-05-14T13:03:05;20.45;;;19.65;;
58302;SDS011;44109;52.398;7.024;2023-05-14T13:05:32;20.65;;;19.85;;
58302;SDS011;44109;52.398;7.024;2023-05-14T13:08:00;22.08;;;21.20;;
58302;SDS011;44109;52.398;7.024;2023-05-14T13:10:28;21.95;;;20.83;;
58302;SDS011;44109;52.398;7.024;2023-05-14T13:12:56;19.67;;;18.90;;
58302;SDS011;44109;52.398;7.024;2023-05-14T13:15:24;19.70;;;18.90;;
58302;SDS011;44109;52.398;7.024;2023-05-14T13:17:53;23.50;;;22.60;;
58302;SDS011;44109;52.398;7.024;2023-05-14T13:20:20;21.10;;;20.30;;
58302;SDS011;44109;52.398;7.024;2023-05-14T13:22:48;20.33;;;19.52;;
58302;SDS011;44109;52.398;7.024;2023-05-14T13:25:16;18.38;;;17.60;;
58302;SDS011;44109;52.398;7.024;2023-05-14T13:27:43;19.27;;;18.48;;
58302;SDS011;44109;52.398;7.024;2023-05-14T13:30:11;20.95;;;19.95;;
58302;SDS011;44109;52.398;7.024;2023-05-14T13:32:39;20.50;;;19.60;;
58302;SDS011;44109;52.398;7.024;2023-05-14T13:35:08;20.77;;;19.98;;
58302;SDS011;44109;52.398;7.024;2023-05-14T13:37:36;20.50;;;19.65;;
58302;SDS011;44109;52.398;7.024;2023-05-14T13:40:04;20.48;;;19.30;;
58302;SDS011;44109;52.398;7.024;2023-05-14T13:42:33;20.05;;;19.27;;
58302;SDS011;44109;52.398;7.024;2023-05-14T13:45:01;19.75;;;18.85;;
58302;SDS011;44109;52.398;7.024;2023-05-14T13:47:29;19.70;;;18.90;;
58302;SDS011;44109;52.398;7.024;2023-05-14T13:49:57;21.65;;;20.75;;
58302;SDS011;44109;52.398;7.024;2023-05-14T13:52:26;20.02;;;19.30;;
58302;SDS011;44109;52.398;7.024;2023-05-14T13:54:54;20.65;;;19.75;;
58302;SDS011;44109;52.398;7.024;2023-05-14T13:57:22;19.33;;;18.63;;
58302;SDS011;44109;52.398;7.024;2023-05-14T13:59:49;20.35;;;19.55;;
58302;SDS011;44109;52.398;7.024;2023-05-14T14:02:17;20.15;;;19.35;;
58302;SDS011;44109;52.398;7.024;2023-05-14T14:04:45;19.33;;;18.42;;
58302;SDS011;44109;52.398;7.024;2023-05-14T14:07:14;18.45;;;17.75;;
58302;SDS011;44109;52.398;7.024;2023-05-14T14:09:43;19.70;;;19.00;;
58302;SDS011;44109;52.398;7.024;2023-05-14T14:12:10;20.23;;;19.45;;
58302;SDS011;44109;52.398;7.024;2023-05-14T14:14:38;19.92;;;19.13;;
58302;SDS011;44109;52.398;7.024;2023-05-14T14:17:05;21.13;;;20.17;;
58302;SDS011;44109;52.398;7.024;2023-05-14T14:19:33;21.00;;;20.20;;
58302;SDS011;44109;52.398;7.024;2023-05-14T14:22:01;20.35;;;19.55;;
58302;SDS011;44109;52.398;7.024;2023-05-14T14:24:29;20.20;;;19.40;;
58302;SDS011;44109;52.398;7.024;2023-05-14T14:26:58;19.70;;;18.95;;
58302;SDS011;44109;52.398;7.024;2023-05-14T14:29:27;20.35;;;19.55;;
58302;SDS011;44109;52.398;7.024;2023-05-14T14:31:55;20.05;;;19.35;;
58302;SDS011;44109;52.398;7.024;2023-05-14T14:34:23;20.52;;;19.73;;